Time;durP1;ratioP1;P1;durP2;ratioP2;P2;SDS_P1;SDS_P2;PMS_P1;PMS_P2;Temp;Humidity;BMP_temperature;BMP_pressure;BME280_temperature;BME280_humidity;BME280_pressure;Samples;Min_cycle;Max_cycle;Signal;HPM_P1;HPM_P2
2022/01/12 00:00:23;;;;;;;6.13;1.85;;;26.60;99.90;;;;;;5051882;28;20022;-68
2022/01/12 00:02:50;;;;;;;6.90;2.03;;;26.70;99.90;;;;;;5070424;28;20027;-69
2022/01/12 00:05:19;;;;;;;9.25;1.58;;;26.80;99.90;;;;;;5070963;28;20052;-68
2022/01/12 00:07:51;;;;;;;8.88;2.10;;;27.10;99.90;;;;;;5068061;28;20051;-68
2022/01/12 00:10:20;;;;;;;8.65;1.90;;;27.30;99.90;;;;;;5070179;28;20024;-68
2022/01/12 00:12:48;;;;;;;9.20;1.95;;;27.50;99.90;;;;;;5058173;28;20029;-71
2022/01/12 00:15:16;;;;;;;9.02;2.45;;;27.70;99.90;;;;;;5050795;28;20113;-71
2022/01/12 00:17:44;;;;;;;13.02;2.47;;;27.90;99.90;;;;;;5050654;28;20028;-71
2022/01/12 00:20:11;;;;;;;10.05;1.83;;;28.10;99.90;;;;;;5050851;28;20049;-71
2022/01/12 00:22:40;;;;;;;6.20;1.63;;;28.20;99.90;;;;;;5054635;28;20468;-71
2022/01/12 00:25:25;;;;;;;7.30;1.58;;;28.20;99.60;;;;;;5051791;28;20477;-70
2022/01/12 00:33:23;;;;;;;7.90;1.20;;;28.00;99.50;;;;;;5051010;28;20024;-70
2022/01/12 00:35:53;;;;;;;3.92;1.25;;;28.00;99.60;;;;;;5050827;28;20031;-70
2022/01/12 00:38:25;;;;;;;2.85;1.00;;;28.00;99.90;;;;;;5052788;28;20029;-70
2022/01/12 00:40:54;;;;;;;2.83;0.82;;;28.10;99.90;;;;;;5050220;28;20067;-69
2022/01/12 00:43:25;;;;;;;4.25;1.40;;;28.20;99.70;;;;;;5051437;28;20078;-68
2022/01/12 00:45:53;;;;;;;5.85;0.63;;;28.20;99.40;;;;;;5070364;28;20115;-70
2022/01/12 00:48:20;;;;;;;5.75;1.00;;;28.20;99.80;;;;;;5073560;28;20025;-69
2022/01/12 00:50:48;;;;;;;4.45;0.98;;;28.30;99.90;;;;;;5067605;28;20074;-71
2022/01/12 00:53:16;;;;;;;4.90;1.08;;;28.40;99.60;;;;;;5062148;28;20023;-69
2022/01/12 00:55:43;;;;;;;5.88;1.17;;;28.40;99.40;;;;;;5069094;28;20541;-69
2022/01/12 00:58:11;;;;;;;2.60;0.88;;;28.40;99.40;;;;;;5067771;28;20440;-70
2022/01/12 01:00:38;;;;;;;2.67;0.80;;;28.40;99.50;;;;;;5054021;28;20113;-69
2022/01/12 01:03:07;;;;;;;5.13;1.20;;;28.50;99.30;;;;;;5069798;28;20078;-69
2022/01/12 01:05:35;;;;;;;5.43;0.75;;;28.70;99.10;;;;;;5052797;28;20020;-69
2022/01/12 01:08:03;;;;;;;6.53;0.85;;;28.90;99.00;;;;;;5052805;28;20037;-69
2022/01/12 01:10:43;;;;;;;3.45;0.70;;;29.00;98.50;;;;;;5053829;28;20501;-69
2022/01/12 01:13:13;;;;;;;6.63;0.70;;;29.00;98.40;;;;;;5053647;28;20052;-69
2022/01/12 01:26:52;;;;;;;2.72;0.70;;;28.90;97.90;;;;;;5055143;28;20085;-68
2022/01/12 01:29:20;;;;;;;4.13;0.90;;;29.00;97.80;;;;;;5061480;28;20025;-69
2022/01/12 01:31:47;;;;;;;8.00;1.40;;;29.10;97.90;;;;;;5069001;28;20071;-69
2022/01/12 01:34:16;;;;;;;6.95;1.00;;;29.30;97.70;;;;;;5060625;28;20021;-70
2022/01/12 01:36:49;;;;;;;5.10;0.90;;;29.60;97.50;;;;;;5070289;28;20064;-74
2022/01/12 01:39:20;;;;;;;5.43;1.55;;;29.80;96.80;;;;;;5060101;28;20025;-68
2022/01/12 01:42:01;;;;;;;7.40;1.17;;;30.00;96.30;;;;;;5064407;28;20021;-71
2022/01/12 01:55:14;;;;;;;5.88;1.15;;;30.40;94.60;;;;;;5053191;28;20390;-69
2022/01/12 01:57:42;;;;;;;7.15;1.08;;;30.50;93.70;;;;;;5052623;28;20490;-68
2022/01/12 02:00:15;;;;;;;5.20;1.02;;;30.50;93.90;;;;;;5052971;28;20104;-68
2022/01/12 02:02:46;;;;;;;8.10;1.00;;;30.50;94.10;;;;;;5052722;28;20021;-67
2022/01/12 02:05:14;;;;;;;4.28;1.13;;;30.60;94.10;;;;;;5052560;28;20446;-69
2022/01/12 02:07:42;;;;;;;4.95;0.90;;;30.50;94.10;;;;;;5053037;28;20021;-68
2022/01/12 02:10:10;;;;;;;4.63;1.33;;;30.60;94.60;;;;;;5052787;28;20381;-72
2022/01/12 02:12:37;;;;;;;5.53;1.13;;;30.80;94.00;;;;;;5051805;28;20086;-72
2022/01/12 02:15:17;;;;;;;6.15;0.88;;;30.80;94.40;;;;;;5050901;28;20029;-70
2022/01/12 02:40:38;;;;;;;5.60;0.82;;;31.00;94.60;;;;;;5051147;28;20480;-68
2022/01/12 02:53:50;;;;;;;1.33;0.50;;;31.40;93.60;;;;;;5051233;28;20029;-70
2022/01/12 02:56:20;;;;;;;3.90;0.65;;;31.50;92.80;;;;;;5051571;28;20083;-75
2022/01/12 02:58:49;;;;;;;6.63;0.50;;;31.30;93.10;;;;;;5051544;28;20025;-70
2022/01/12 03:04:09;;;;;;;1.73;0.60;;;30.60;93.60;;;;;;5051587;28;20032;-69
2022/01/12 03:06:40;;;;;;;4.00;0.68;;;30.10;94.20;;;;;;5051416;28;20148;-72
2022/01/12 03:09:10;;;;;;;3.60;0.40;;;30.00;94.40;;;;;;5051328;28;20032;-72
2022/01/12 03:11:38;;;;;;;2.67;0.60;;;29.90;94.60;;;;;;5051857;28;20376;-70
2022/01/12 03:14:06;;;;;;;3.25;0.60;;;29.80;94.80;;;;;;5051867;28;20479;-73
2022/01/12 03:16:34;;;;;;;2.50;0.85;;;29.70;94.90;;;;;;5051645;28;20046;-72
2022/01/12 03:19:03;;;;;;;2.88;0.50;;;29.70;95.10;;;;;;5051846;28;20359;-70
2022/01/12 03:21:33;;;;;;;3.75;0.60;;;29.70;95.10;;;;;;5051571;28;20013;-71
2022/01/12 03:24:02;;;;;;;3.85;0.73;;;29.60;95.40;;;;;;5051131;28;20397;-70
2022/01/12 03:26:33;;;;;;;4.32;0.68;;;29.90;95.40;;;;;;5051084;28;20042;-71
2022/01/12 03:29:01;;;;;;;7.13;1.25;;;30.00;94.90;;;;;;5065199;28;20045;-70
2022/01/12 03:31:33;;;;;;;4.65;0.70;;;29.90;95.80;;;;;;5066609;28;20045;-70
2022/01/12 03:34:21;;;;;;;4.22;0.60;;;29.70;95.30;;;;;;5051330;28;20024;-71
2022/01/12 03:39:30;;;;;;;3.90;0.65;;;29.70;95.10;;;;;;5051244;28;20474;-71
2022/01/12 03:41:57;;;;;;;4.80;0.68;;;29.70;95.00;;;;;;5051166;28;20063;-68
2022/01/12 03:44:25;;;;;;;4.13;0.57;;;29.60;95.60;;;;;;5051361;28;20021;-68
2022/01/12 03:46:54;;;;;;;4.95;0.93;;;29.40;96.00;;;;;;5051383;28;20104;-72
2022/01/12 03:49:22;;;;;;;6.38;1.15;;;29.40;96.50;;;;;;5051333;28;20031;-69
2022/01/12 03:51:53;;;;;;;4.60;0.82;;;29.40;96.70;;;;;;5051427;28;20013;-73
2022/01/12 03:54:21;;;;;;;4.77;0.90;;;29.20;97.00;;;;;;5051331;28;20492;-68
2022/01/12 03:56:48;;;;;;;3.38;0.70;;;29.20;96.90;;;;;;5051255;28;20286;-71
2022/01/12 03:59:15;;;;;;;7.82;0.80;;;29.40;96.30;;;;;;5051029;28;20458;-72
2022/01/12 04:01:43;;;;;;;6.45;0.85;;;29.50;96.10;;;;;;5051100;28;20060;-69
2022/01/12 04:04:17;;;;;;;5.00;1.30;;;29.60;95.70;;;;;;5050841;28;20470;-70
2022/01/12 04:09:30;;;;;;;4.53;0.82;;;29.40;95.70;;;;;;5051009;28;20059;-71
2022/01/12 04:11:57;;;;;;;5.30;0.82;;;29.20;95.90;;;;;;5050900;28;20025;-72
2022/01/12 04:14:24;;;;;;;4.75;0.60;;;29.10;95.80;;;;;;5050968;28;20062;-73
2022/01/12 04:16:52;;;;;;;6.75;1.13;;;29.00;95.70;;;;;;5051187;28;20029;-73
2022/01/12 04:19:19;;;;;;;5.15;0.80;;;29.00;95.90;;;;;;5051169;28;20150;-72
2022/01/12 04:21:49;;;;;;;5.90;1.00;;;28.80;95.80;;;;;;5052619;28;20025;-71
2022/01/12 04:24:17;;;;;;;5.90;1.48;;;28.70;95.80;;;;;;5054684;28;20052;-72
2022/01/12 04:26:44;;;;;;;4.32;0.60;;;28.50;96.20;;;;;;5054738;28;20473;-71
2022/01/12 04:29:13;;;;;;;5.13;0.77;;;28.30;97.10;;;;;;5054655;28;20028;-71
2022/01/12 04:31:41;;;;;;;5.05;1.00;;;28.20;96.80;;;;;;5054724;28;20045;-69
2022/01/12 04:34:09;;;;;;;4.60;1.20;;;28.10;96.60;;;;;;5054517;28;20055;-71
2022/01/12 04:36:37;;;;;;;4.72;0.80;;;27.90;97.10;;;;;;5053270;28;20040;-70
2022/01/12 04:39:05;;;;;;;8.25;1.48;;;27.60;97.50;;;;;;5054916;28;20025;-72
2022/01/12 04:41:32;;;;;;;4.82;0.60;;;27.60;97.90;;;;;;5070180;28;20025;-68
2022/01/12 04:44:02;;;;;;;5.65;0.82;;;27.40;98.00;;;;;;5054482;28;20082;-68
2022/01/12 04:46:48;;;;;;;4.88;0.90;;;27.30;98.20;;;;;;5054045;28;20501;-69
2022/01/12 04:49:47;;;;;;;3.92;0.90;;;27.10;98.20;;;;;;5053667;28;20048;-72
2022/01/12 04:52:16;;;;;;;5.10;0.88;;;26.90;98.70;;;;;;5053818;28;20029;-68
2022/01/12 04:54:43;;;;;;;7.20;1.35;;;26.80;99.50;;;;;;5054080;28;20037;-68
2022/01/12 04:57:11;;;;;;;6.22;1.45;;;26.70;99.90;;;;;;5053782;28;20505;-72
2022/01/12 04:59:47;;;;;;;2.92;0.80;;;26.70;99.90;;;;;;5054010;28;20029;-68
2022/01/12 05:07:58;;;;;;;7.18;0.90;;;26.40;99.90;;;;;;5053678;28;20040;-70
2022/01/12 05:13:00;;;;;;;6.18;0.93;;;26.30;99.90;;;;;;5053926;28;20021;-71
2022/01/12 05:15:34;;;;;;;7.13;1.33;;;26.30;99.90;;;;;;5053984;28;20025;-70
2022/01/12 05:18:02;;;;;;;5.60;1.27;;;26.30;99.90;;;;;;5053510;28;20508;-69
2022/01/12 05:20:29;;;;;;;4.25;1.27;;;26.20;99.90;;;;;;5052254;28;20025;-71
2022/01/12 05:22:57;;;;;;;6.65;1.08;;;26.10;99.90;;;;;;5053841;28;20021;-71
2022/01/12 05:25:25;;;;;;;8.60;1.52;;;26.00;99.90;;;;;;5053620;28;20017;-70
2022/01/12 05:27:53;;;;;;;4.78;0.95;;;26.00;99.90;;;;;;5053356;28;20358;-70
2022/01/12 05:30:21;;;;;;;6.22;0.90;;;25.90;99.90;;;;;;5053356;28;20017;-69
2022/01/12 05:32:48;;;;;;;4.70;0.77;;;25.90;99.90;;;;;;5053123;28;20148;-70
2022/01/12 05:35:18;;;;;;;6.18;0.80;;;25.80;99.90;;;;;;5053163;28;20095;-70
2022/01/12 05:37:45;;;;;;;5.30;1.25;;;25.80;99.90;;;;;;5068627;28;20040;-69
2022/01/12 05:40:14;;;;;;;4.38;0.60;;;25.80;99.90;;;;;;5053350;28;20024;-70
2022/01/12 05:42:43;;;;;;;7.43;0.80;;;25.70;99.90;;;;;;5053452;28;20021;-68
2022/01/12 05:45:11;;;;;;;3.97;0.85;;;25.70;99.90;;;;;;5053731;28;20084;-69
2022/01/12 05:49:34;;;;;;;2.42;0.52;;;25.80;99.90;;;;;;5053391;28;20021;-69
2022/01/12 05:50:27;;;;;;;4.88;0.70;;;25.80;99.90;;;;;;5052758;28;20035;-70
2022/01/12 05:52:54;;;;;;;7.72;1.58;;;25.70;99.90;;;;;;5052776;28;20106;-69
2022/01/12 05:55:22;;;;;;;5.03;0.65;;;25.60;99.90;;;;;;5052819;28;20032;-72
2022/01/12 05:57:49;;;;;;;3.40;0.57;;;25.60;99.90;;;;;;5051707;28;20155;-69
2022/01/12 06:00:19;;;;;;;5.90;0.98;;;25.50;99.90;;;;;;5052960;28;20017;-69
2022/01/12 06:02:47;;;;;;;7.20;1.30;;;25.40;99.90;;;;;;5053093;28;20070;-70
2022/01/12 06:05:19;;;;;;;4.20;0.82;;;25.30;99.90;;;;;;5052867;28;20021;-70
2022/01/12 06:07:50;;;;;;;4.57;0.75;;;25.20;99.90;;;;;;5052397;28;20017;-71
2022/01/12 06:10:22;;;;;;;2.97;0.52;;;25.10;99.90;;;;;;5052241;28;20029;-70
2022/01/12 06:12:50;;;;;;;4.13;0.77;;;24.90;99.90;;;;;;5052723;28;20083;-70
2022/01/12 06:15:18;;;;;;;6.72;1.15;;;24.90;99.90;;;;;;5068374;28;20111;-69
2022/01/12 06:17:47;;;;;;;6.07;0.98;;;24.80;99.90;;;;;;5052714;28;20073;-68
2022/01/12 06:20:14;;;;;;;6.60;1.20;;;24.70;99.90;;;;;;5052618;28;20028;-70
2022/01/12 06:22:42;;;;;;;6.22;0.80;;;24.60;99.90;;;;;;5052569;28;20083;-70
2022/01/12 06:25:14;;;;;;;5.25;0.98;;;24.40;99.90;;;;;;5052999;28;20482;-69
2022/01/12 06:27:50;;;;;;;2.47;0.50;;;24.30;99.90;;;;;;5067807;28;20025;-70
2022/01/12 06:33:06;;;;;;;2.72;0.80;;;24.40;99.90;;;;;;5031105;28;20103;-71
2022/01/12 06:35:33;;;;;;;5.78;1.08;;;24.30;99.90;;;;;;5050849;28;20067;-71
2022/01/12 06:38:04;;;;;;;5.47;0.82;;;24.30;99.90;;;;;;5052136;28;20107;-71
2022/01/12 06:40:31;;;;;;;2.05;0.60;;;24.20;99.90;;;;;;5051094;28;20017;-68
2022/01/12 06:43:01;;;;;;;5.68;2.65;;;24.10;99.90;;;;;;5051910;28;20107;-68
2022/01/12 06:45:29;;;;;;;7.32;1.20;;;24.00;99.90;;;;;;5051523;28;20052;-72
2022/01/12 06:47:56;;;;;;;2.15;1.15;;;24.00;99.90;;;;;;5063021;28;20439;-71
2022/01/12 06:50:23;;;;;;;3.28;0.85;;;24.00;99.90;;;;;;5070867;28;20024;-68
2022/01/12 06:52:51;;;;;;;5.25;1.15;;;23.90;99.90;;;;;;5070978;28;20043;-71
2022/01/12 06:55:18;;;;;;;4.20;0.70;;;23.90;99.90;;;;;;5070808;28;20021;-68
2022/01/12 06:57:45;;;;;;;4.65;1.00;;;23.80;99.90;;;;;;5070097;28;20032;-78
2022/01/12 07:00:13;;;;;;;2.35;0.93;;;23.80;99.90;;;;;;5070046;28;20020;-70
2022/01/12 07:02:40;;;;;;;5.13;1.20;;;23.80;99.90;;;;;;5067018;28;20012;-73
2022/01/12 07:05:08;;;;;;;5.28;0.90;;;23.90;99.90;;;;;;5068467;28;20025;-76
2022/01/12 07:07:35;;;;;;;4.18;0.80;;;23.90;99.90;;;;;;5070574;28;20021;-75
2022/01/12 07:10:03;;;;;;;5.15;0.98;;;23.90;99.90;;;;;;5068843;28;20016;-77
2022/01/12 07:12:31;;;;;;;4.10;1.02;;;24.00;99.90;;;;;;5071710;28;20021;-78
2022/01/12 07:14:58;;;;;;;2.97;1.02;;;24.00;99.90;;;;;;5068415;28;20412;-78
2022/01/12 07:17:25;;;;;;;7.00;2.45;;;24.00;99.90;;;;;;5070756;28;20120;-72
2022/01/12 07:19:53;;;;;;;4.22;1.35;;;23.90;99.90;;;;;;5069653;28;20009;-72
2022/01/12 07:22:23;;;;;;;3.13;0.90;;;23.90;99.90;;;;;;5068186;28;20568;-80
2022/01/12 07:24:50;;;;;;;5.53;1.10;;;23.90;99.90;;;;;;5070845;28;20016;-80
2022/01/12 07:27:17;;;;;;;3.72;1.23;;;23.90;99.90;;;;;;5055632;28;20020;-69
2022/01/12 07:29:45;;;;;;;2.22;0.75;;;23.80;99.90;;;;;;5069702;28;20028;-72
2022/01/12 07:32:12;;;;;;;7.57;1.90;;;23.80;99.90;;;;;;5068420;28;20097;-77
2022/01/12 07:34:40;;;;;;;4.50;0.85;;;23.80;99.90;;;;;;5068573;28;20054;-80
2022/01/12 07:37:07;;;;;;;5.35;1.73;;;23.80;99.90;;;;;;5068340;28;20491;-76
2022/01/12 07:39:34;;;;;;;3.75;1.00;;;23.80;99.90;;;;;;5068910;28;20024;-72
2022/01/12 07:42:03;;;;;;;4.70;1.35;;;23.90;99.90;;;;;;5066910;28;20099;-72
2022/01/12 07:44:31;;;;;;;1.85;0.70;;;23.80;99.90;;;;;;5069308;28;20035;-71
2022/01/12 07:46:58;;;;;;;3.28;0.63;;;23.70;99.90;;;;;;5069644;28;20526;-70
2022/01/12 07:49:25;;;;;;;6.38;1.40;;;23.70;99.90;;;;;;5067530;28;20059;-74
2022/01/12 07:51:53;;;;;;;4.07;0.90;;;23.60;99.90;;;;;;5068822;28;20012;-68
2022/01/12 07:54:20;;;;;;;2.90;0.93;;;23.60;99.90;;;;;;5068359;28;20095;-71
2022/01/12 07:56:47;;;;;;;2.72;0.70;;;23.50;99.90;;;;;;5071739;28;20075;-73
2022/01/12 07:59:15;;;;;;;4.03;0.93;;;23.50;99.90;;;;;;5073198;28;20024;-71
2022/01/12 08:01:42;;;;;;;5.03;0.98;;;23.40;99.90;;;;;;5070820;28;20365;-72
2022/01/12 08:04:09;;;;;;;4.13;0.52;;;23.30;99.90;;;;;;5072113;28;20055;-70
2022/01/12 08:06:37;;;;;;;2.75;0.80;;;23.30;99.90;;;;;;5071993;28;20066;-72
2022/01/12 08:09:07;;;;;;;5.28;0.90;;;23.30;99.90;;;;;;5072485;28;20027;-69
2022/01/12 08:11:35;;;;;;;3.20;0.80;;;23.30;99.90;;;;;;5072552;28;20024;-70
2022/01/12 08:14:02;;;;;;;5.93;1.70;;;23.20;99.90;;;;;;5069890;28;20028;-70
2022/01/12 08:16:29;;;;;;;8.90;2.75;;;23.20;99.90;;;;;;5072304;28;20195;-68
2022/01/12 08:18:56;;;;;;;6.20;2.10;;;23.20;99.90;;;;;;5071672;28;20123;-70
2022/01/12 08:21:26;;;;;;;4.50;1.30;;;23.20;99.90;;;;;;5071995;28;20022;-73
2022/01/12 08:23:53;;;;;;;3.40;1.08;;;23.10;99.90;;;;;;5072469;28;20543;-73
2022/01/12 08:26:21;;;;;;;4.10;0.82;;;23.10;99.90;;;;;;5072298;28;20016;-74
2022/01/12 08:28:48;;;;;;;4.57;1.13;;;23.10;99.90;;;;;;5070910;28;20012;-77
2022/01/12 08:31:17;;;;;;;3.17;1.05;;;23.10;99.90;;;;;;5072196;28;20437;-77
2022/01/12 08:33:45;;;;;;;3.88;0.95;;;23.10;99.90;;;;;;5070054;28;20021;-72
2022/01/12 08:36:12;;;;;;;3.38;0.85;;;23.10;99.90;;;;;;5072052;28;20095;-75
2022/01/12 08:38:40;;;;;;;5.88;0.90;;;23.10;99.90;;;;;;5071903;28;20039;-72
2022/01/12 08:41:07;;;;;;;4.25;0.98;;;23.20;99.90;;;;;;5071826;28;20048;-74
2022/01/12 08:43:35;;;;;;;4.88;1.15;;;23.10;99.90;;;;;;5071647;28;20073;-75
2022/01/12 08:46:03;;;;;;;4.22;1.38;;;23.10;99.90;;;;;;5071720;28;20020;-71
2022/01/12 08:48:30;;;;;;;6.32;1.65;;;23.10;99.90;;;;;;5069724;28;20035;-74
2022/01/12 08:50:57;;;;;;;8.43;1.55;;;23.20;99.90;;;;;;5072479;28;20017;-71
2022/01/12 08:53:25;;;;;;;11.35;2.53;;;23.10;99.90;;;;;;5072494;28;20469;-72
2022/01/12 08:55:52;;;;;;;8.68;1.85;;;23.10;99.90;;;;;;5073161;28;20021;-69
2022/01/12 08:58:19;;;;;;;9.48;1.75;;;22.90;99.90;;;;;;5070349;28;20034;-74
2022/01/12 09:00:47;;;;;;;5.13;1.48;;;22.90;99.90;;;;;;5072765;28;20028;-66
2022/01/12 09:03:14;;;;;;;8.07;1.60;;;22.90;99.90;;;;;;5072487;28;20039;-70
2022/01/12 09:05:42;;;;;;;9.10;2.58;;;22.80;99.90;;;;;;5070003;28;20017;-67
2022/01/12 09:08:09;;;;;;;6.20;1.52;;;22.90;99.90;;;;;;5070637;28;20113;-73
2022/01/12 09:10:37;;;;;;;7.85;1.75;;;22.80;99.90;;;;;;5071562;28;20013;-65
2022/01/12 09:13:04;;;;;;;5.13;1.20;;;22.70;99.90;;;;;;5071567;28;20489;-71
2022/01/12 09:15:31;;;;;;;3.08;1.20;;;22.60;99.90;;;;;;5071313;28;20595;-69
2022/01/12 09:17:59;;;;;;;7.35;1.50;;;22.60;99.90;;;;;;5071059;28;20477;-67
2022/01/12 09:20:28;;;;;;;5.85;1.50;;;22.60;99.90;;;;;;5069239;28;20016;-70
2022/01/12 09:22:56;;;;;;;8.10;2.13;;;22.60;99.90;;;;;;5071123;28;20028;-70
2022/01/12 09:25:23;;;;;;;10.88;2.03;;;22.60;99.90;;;;;;5071422;28;20024;-71
2022/01/12 09:27:50;;;;;;;7.78;1.50;;;22.60;99.90;;;;;;5071631;28;20021;-66
2022/01/12 09:30:19;;;;;;;9.15;2.00;;;22.60;99.90;;;;;;5071050;28;20460;-66
2022/01/12 09:32:46;;;;;;;10.38;1.60;;;22.60;99.90;;;;;;5063010;28;20492;-70
2022/01/12 09:35:14;;;;;;;7.75;1.80;;;22.60;99.90;;;;;;5069858;28;20126;-69
2022/01/12 09:37:41;;;;;;;10.98;2.33;;;22.60;99.90;;;;;;5071870;28;20024;-69
2022/01/12 09:40:09;;;;;;;12.10;2.20;;;22.50;99.90;;;;;;5069807;28;20116;-73
2022/01/12 09:42:37;;;;;;;9.18;2.30;;;22.50;99.90;;;;;;5071641;28;20447;-70
2022/01/12 09:45:07;;;;;;;7.72;1.77;;;22.60;99.90;;;;;;5068843;28;20515;-70
2022/01/12 09:47:34;;;;;;;5.72;1.38;;;22.60;99.90;;;;;;5071796;28;20158;-68
2022/01/12 09:50:02;;;;;;;6.57;1.90;;;22.60;99.90;;;;;;5071658;28;20413;-68
2022/01/12 09:52:29;;;;;;;8.95;1.67;;;22.60;99.90;;;;;;5071897;28;20013;-68
2022/01/12 09:54:57;;;;;;;6.60;1.00;;;22.50;99.90;;;;;;5071211;28;20016;-71
2022/01/12 09:57:24;;;;;;;9.35;1.50;;;22.50;99.90;;;;;;5069039;28;20024;-69
2022/01/12 09:59:51;;;;;;;10.32;1.50;;;22.40;99.90;;;;;;5070994;28;20025;-69
2022/01/12 10:02:21;;;;;;;8.43;1.75;;;22.50;99.90;;;;;;5071264;28;20024;-70
2022/01/12 10:04:59;;;;;;;9.05;1.73;;;22.50;99.90;;;;;;5071300;28;20021;-72
2022/01/12 10:07:26;;;;;;;9.77;2.45;;;22.50;99.90;;;;;;5068865;28;20033;-67
2022/01/12 10:10:01;;;;;;;9.30;2.00;;;22.50;99.90;;;;;;5071202;28;20457;-69
2022/01/12 10:12:28;;;;;;;9.90;1.83;;;22.50;99.90;;;;;;5070354;28;20090;-71
2022/01/12 10:14:59;;;;;;;9.57;1.98;;;22.50;99.90;;;;;;5072017;28;20066;-70
2022/01/12 10:17:35;;;;;;;12.07;2.92;;;22.50;99.90;;;;;;5074006;28;20036;-79
2022/01/12 10:20:13;;;;;;;9.02;2.33;;;22.40;99.90;;;;;;5072521;28;20031;-71
2022/01/12 10:22:56;;;;;;;10.48;2.22;;;22.50;99.90;;;;;;5072439;28;20373;-71
2022/01/12 10:25:23;;;;;;;10.13;2.40;;;22.50;99.90;;;;;;5072098;28;20104;-67
2022/01/12 10:27:51;;;;;;;5.40;1.48;;;22.40;99.90;;;;;;5070263;28;20025;-69
2022/01/12 10:30:23;;;;;;;5.30;1.27;;;22.30;99.90;;;;;;5067512;28;20587;-64
2022/01/12 10:33:05;;;;;;;4.43;1.35;;;22.30;99.90;;;;;;5058345;28;20112;-68
2022/01/12 10:35:40;;;;;;;10.32;1.70;;;22.40;99.90;;;;;;5061560;28;20086;-68
2022/01/12 10:38:12;;;;;;;13.98;2.72;;;22.40;99.90;;;;;;5064009;28;20552;-68
2022/01/12 10:40:51;;;;;;;10.75;2.58;;;22.30;99.90;;;;;;5065487;28;20110;-72
2022/01/12 10:43:28;;;;;;;7.75;2.00;;;22.20;99.90;;;;;;5051812;28;20106;-70
2022/01/12 10:45:55;;;;;;;12.15;2.60;;;22.20;99.90;;;;;;5051467;28;20032;-73
2022/01/12 10:48:26;;;;;;;12.55;2.58;;;22.30;99.90;;;;;;5059487;28;20017;-70
2022/01/12 10:50:57;;;;;;;14.63;2.33;;;22.30;99.90;;;;;;5063425;28;20048;-69
2022/01/12 10:53:33;;;;;;;13.07;3.05;;;22.30;99.90;;;;;;5051104;28;20021;-68
2022/01/12 10:56:12;;;;;;;18.10;4.53;;;22.20;99.90;;;;;;5051565;28;20029;-70
2022/01/12 10:58:45;;;;;;;16.27;4.55;;;22.20;99.90;;;;;;5061669;28;20157;-75
2022/01/12 11:01:14;;;;;;;20.65;3.50;;;22.30;99.90;;;;;;5058981;28;20021;-67
2022/01/12 11:03:42;;;;;;;18.30;3.97;;;22.30;99.90;;;;;;5051180;28;20147;-68
2022/01/12 11:06:10;;;;;;;17.73;3.65;;;22.40;99.90;;;;;;5051070;28;20032;-67
2022/01/12 11:08:39;;;;;;;20.15;3.83;;;22.40;99.90;;;;;;5051010;28;20103;-69
2022/01/12 11:11:07;;;;;;;19.10;4.68;;;22.40;99.90;;;;;;5050824;28;20469;-73
2022/01/12 11:13:36;;;;;;;27.02;4.57;;;22.40;99.90;;;;;;5051229;28;20474;-70
2022/01/12 11:16:04;;;;;;;21.25;4.30;;;22.40;99.90;;;;;;5065993;28;20021;-71
2022/01/12 11:18:38;;;;;;;19.60;4.45;;;22.40;99.90;;;;;;5070106;28;20044;-68
2022/01/12 11:21:15;;;;;;;19.33;3.67;;;22.30;99.90;;;;;;5060599;28;20020;-72
2022/01/12 11:23:43;;;;;;;21.15;3.65;;;22.30;99.90;;;;;;5050434;28;20025;-67
2022/01/12 11:26:15;;;;;;;18.42;3.25;;;22.30;99.90;;;;;;5051172;28;20017;-68
2022/01/12 11:28:43;;;;;;;25.30;4.10;;;22.30;99.90;;;;;;5061689;28;20576;-70
2022/01/12 11:31:12;;;;;;;17.60;3.75;;;22.30;99.90;;;;;;5060001;28;20060;-70
2022/01/12 11:33:44;;;;;;;22.05;4.47;;;22.40;99.90;;;;;;5050905;28;20025;-68
2022/01/12 11:36:24;;;;;;;14.77;2.88;;;22.30;99.90;;;;;;5051083;28;20045;-71
2022/01/12 11:39:05;;;;;;;17.73;2.70;;;22.40;99.90;;;;;;5062998;28;20089;-67
2022/01/12 11:41:37;;;;;;;9.40;1.95;;;22.30;99.90;;;;;;5057044;28;20488;-72
2022/01/12 11:44:15;;;;;;;7.63;1.25;;;22.40;99.90;;;;;;5055174;28;20493;-69
2022/01/12 11:46:47;;;;;;;6.93;0.98;;;22.40;99.90;;;;;;5054257;28;20025;-70
2022/01/12 11:49:40;;;;;;;8.07;1.20;;;22.40;99.90;;;;;;5070182;28;20052;-71
2022/01/12 11:52:37;;;;;;;5.53;1.00;;;22.40;99.90;;;;;;5068695;28;20017;-70
2022/01/12 11:55:17;;;;;;;6.00;0.95;;;22.40;99.90;;;;;;5053875;28;20036;-67
2022/01/12 11:57:50;;;;;;;3.72;1.02;;;22.40;99.90;;;;;;5068539;28;20033;-69
2022/01/12 12:00:29;;;;;;;6.25;1.48;;;22.40;99.90;;;;;;5069829;28;20071;-69
2022/01/12 12:02:57;;;;;;;6.88;1.20;;;22.40;99.90;;;;;;5071070;28;20029;-70
2022/01/12 12:05:30;;;;;;;5.72;1.48;;;22.40;99.90;;;;;;5070201;28;20044;-68
2022/01/12 12:08:02;;;;;;;7.80;1.20;;;22.40;99.90;;;;;;5068820;28;20358;-70
2022/01/12 12:10:34;;;;;;;7.75;1.20;;;22.40;99.90;;;;;;5067982;28;20094;-69
2022/01/12 12:13:02;;;;;;;;;;;22.40;99.90;;;;;;5068467;28;20036;-69
2022/01/12 12:15:30;;;;;;;4.85;0.90;;;22.40;99.90;;;;;;5069437;28;19905;-69
2022/01/12 12:18:00;;;;;;;4.45;0.88;;;22.40;99.90;;;;;;5069131;28;20052;-70
2022/01/12 12:20:27;;;;;;;8.15;1.85;;;22.40;99.90;;;;;;5069463;28;20021;-69
2022/01/12 12:22:55;;;;;;;6.32;1.38;;;22.40;99.90;;;;;;5070137;28;20028;-69
2022/01/12 12:25:28;;;;;;;5.60;1.25;;;22.50;99.90;;;;;;5069284;28;20017;-69
2022/01/12 12:28:02;;;;;;;5.20;1.38;;;22.40;99.90;;;;;;5069305;28;20124;-69
2022/01/12 12:30:32;;;;;;;7.90;1.50;;;22.40;99.90;;;;;;5068577;28;20017;-70
2022/01/12 12:33:21;;;;;;;6.63;1.38;;;22.40;99.90;;;;;;5070109;28;20380;-68
2022/01/12 12:35:49;;;;;;;5.18;1.92;;;22.30;99.90;;;;;;5078059;28;20016;-68
2022/01/12 12:38:19;;;;;;;6.45;1.38;;;22.30;99.90;;;;;;5090831;28;20039;-68
2022/01/12 12:40:50;;;;;;;1.98;0.82;;;22.20;99.90;;;;;;5091580;28;20020;-67
2022/01/12 12:43:27;;;;;;;6.30;1.02;;;22.20;99.90;;;;;;5091660;28;20396;-68
2022/01/12 12:46:01;;;;;;;7.95;1.02;;;22.10;99.90;;;;;;5092781;28;20473;-68
2022/01/12 12:48:31;;;;;;;9.52;1.35;;;22.10;99.90;;;;;;5092553;28;20456;-68
2022/01/12 12:51:07;;;;;;;6.47;1.00;;;22.00;99.90;;;;;;5092756;28;20475;-68
2022/01/12 12:53:38;;;;;;;4.55;0.93;;;22.10;99.90;;;;;;5092746;28;20404;-69
2022/01/12 12:56:11;;;;;;;6.35;1.13;;;22.00;99.90;;;;;;5092389;28;20020;-68
2022/01/12 12:58:39;;;;;;;3.42;1.00;;;22.10;99.90;;;;;;5093464;28;20498;-67
2022/01/12 13:01:11;;;;;;;2.58;1.05;;;22.10;99.90;;;;;;5093962;28;20039;-67
2022/01/12 13:03:39;;;;;;;;;;;22.00;99.90;;;;;;5095042;28;20476;-67
2022/01/12 13:06:07;;;;;;;4.65;0.73;;;21.90;99.90;;;;;;5094668;28;19943;-66
2022/01/12 13:08:34;;;;;;;3.10;0.77;;;21.90;99.90;;;;;;5094303;28;20027;-66
2022/01/12 13:11:10;;;;;;;6.03;1.25;;;21.90;99.90;;;;;;5093720;28;20077;-66
2022/01/12 13:13:37;;;;;;;5.93;1.30;;;21.80;99.90;;;;;;5091739;28;20035;-65
2022/01/12 13:16:08;;;;;;;5.38;0.98;;;21.90;99.90;;;;;;5073739;28;20028;-65
2022/01/12 13:18:40;;;;;;;2.58;0.70;;;21.90;99.90;;;;;;5073700;28;20041;-66
2022/01/12 13:21:07;;;;;;;4.75;1.08;;;21.90;99.90;;;;;;5073581;28;20025;-65
2022/01/12 13:23:45;;;;;;;5.90;1.23;;;22.00;99.90;;;;;;5073766;28;20465;-65
2022/01/12 13:26:17;;;;;;;5.53;0.90;;;22.00;99.90;;;;;;5073824;28;20111;-66
2022/01/12 13:28:46;;;;;;;5.85;1.73;;;22.00;99.90;;;;;;5073983;28;20404;-65
2022/01/12 13:31:16;;;;;;;2.25;1.00;;;21.90;99.90;;;;;;5073546;28;20097;-66
2022/01/12 13:33:54;;;;;;;3.42;0.70;;;22.00;99.90;;;;;;5073557;28;20042;-66
2022/01/12 13:36:29;;;;;;;5.90;1.35;;;22.00;99.90;;;;;;5073427;28;20033;-66
2022/01/12 13:39:07;;;;;;;5.22;0.70;;;22.00;99.90;;;;;;5073361;28;20469;-66
2022/01/12 13:41:38;;;;;;;3.63;0.77;;;22.00;99.90;;;;;;5073074;28;20020;-67
2022/01/12 13:44:11;;;;;;;3.17;0.98;;;22.00;99.90;;;;;;5073549;28;20032;-66
2022/01/12 13:46:43;;;;;;;2.90;1.00;;;21.90;99.90;;;;;;5073610;28;20032;-66
2022/01/12 13:51:51;;;;;;;3.33;0.75;;;21.90;99.90;;;;;;5073320;28;20485;-66
2022/01/12 13:54:19;;;;;;;4.80;0.98;;;21.90;99.90;;;;;;5072916;28;20051;-68
2022/01/12 13:56:51;;;;;;;4.35;0.90;;;22.00;99.90;;;;;;5072985;28;20117;-67
2022/01/12 13:59:19;;;;;;;3.28;1.23;;;22.00;99.90;;;;;;5073278;28;20017;-66
2022/01/12 14:01:48;;;;;;;2.97;0.90;;;21.90;99.90;;;;;;5073110;28;20032;-67
2022/01/12 14:04:42;;;;;;;2.83;0.90;;;21.80;99.90;;;;;;5073489;28;20560;-67
2022/01/12 14:07:12;;;;;;;4.20;0.90;;;21.70;99.90;;;;;;5072873;28;20021;-66
2022/01/12 14:09:42;;;;;;;3.92;0.90;;;21.70;99.90;;;;;;5073282;28;20035;-66
2022/01/12 14:12:15;;;;;;;4.28;1.25;;;21.80;99.90;;;;;;5072822;28;20028;-66
2022/01/12 14:14:53;;;;;;;3.47;0.70;;;21.80;99.90;;;;;;5073040;28;20025;-66
2022/01/12 14:17:32;;;;;;;5.97;1.15;;;21.80;99.90;;;;;;5072522;28;20032;-65
2022/01/12 14:20:12;;;;;;;3.83;0.93;;;21.80;99.90;;;;;;5073053;28;20063;-66
2022/01/12 14:22:48;;;;;;;4.82;1.00;;;21.70;99.90;;;;;;5073006;28;20101;-65